Time;durP1;ratioP1;P1;durP2;ratioP2;P2;SDS_P1;SDS_P2;PMS_P1;PMS_P2;Temp;Humidity;BMP_temperature;BMP_pressure;BME280_temperature;BME280_humidity;BME280_pressure;Samples;Min_cycle;Max_cycle;Signal;HPM_P1;HPM_P2
2022/07/19 00:01:24;;;;;;;2.95;1.10;;;;;;;19.14;44.78;100521.41;4403208;32;34201;-83
2022/07/19 00:03:52;;;;;;;3.75;1.20;;;;;;;19.08;45.03;100519.53;4389801;32;35110;-84
2022/07/19 00:06:20;;;;;;;3.62;1.00;;;;;;;19.08;45.06;100518.66;4405905;32;33471;-82
2022/07/19 00:08:47;;;;;;;2.80;1.02;;;;;;;19.11;44.10;100523.97;4404375;32;34099;-83
2022/07/19 00:11:15;;;;;;;2.62;0.95;;;;;;;18.95;44.42;100522.72;4403121;32;34201;-83
2022/07/19 00:13:43;;;;;;;2.17;0.90;;;;;;;18.73;45.38;100514.34;4403243;32;33348;-82
2022/07/19 00:16:11;;;;;;;3.12;0.88;;;;;;;18.83;45.25;100518.09;4403336;32;34335;-83
2022/07/19 00:18:38;;;;;;;4.20;0.82;;;;;;;18.59;45.73;100516.66;4375920;32;32270;-83
2022/07/19 00:21:06;;;;;;;2.83;0.80;;;;;;;18.53;45.29;100519.13;4405949;32;34586;-82
2022/07/19 00:23:34;;;;;;;5.40;1.33;;;;;;;18.44;45.29;100518.91;4405662;32;33633;-82
2022/07/19 00:26:02;;;;;;;2.85;0.98;;;;;;;18.36;45.46;100523.09;4400750;32;33579;-84
2022/07/19 00:28:30;;;;;;;4.45;1.10;;;;;;;18.41;45.59;100518.84;4404978;32;35273;-81
2022/07/19 00:30:58;;;;;;;4.03;0.90;;;;;;;18.64;45.37;100516.78;4404236;32;34829;-83
2022/07/19 00:33:25;;;;;;;3.05;1.10;;;;;;;18.61;45.12;100512.31;4399900;32;34251;-82
2022/07/19 00:35:53;;;;;;;3.53;1.05;;;;;;;18.87;44.49;100506.81;4405722;32;33851;-82
2022/07/19 00:38:20;;;;;;;3.53;1.10;;;;;;;18.67;45.08;100514.22;4404216;32;33836;-83
2022/07/19 00:40:48;;;;;;;3.97;1.08;;;;;;;19.06;44.05;100521.22;4407262;32;34632;-82
2022/07/19 00:43:16;;;;;;;5.50;1.00;;;;;;;19.25;43.61;100517.25;4407202;32;33195;-83
2022/07/19 00:45:43;;;;;;;4.95;0.93;;;;;;;19.87;42.20;100508.00;4404709;32;33793;-83
2022/07/19 00:48:11;;;;;;;3.78;0.88;;;;;;;19.98;42.28;100511.72;4402890;32;34556;-83
2022/07/19 00:50:38;;;;;;;2.55;1.02;;;;;;;20.19;41.74;100516.47;4406471;32;33457;-83
2022/07/19 00:53:06;;;;;;;4.05;1.52;;;;;;;19.65;42.75;100518.06;4404219;32;33636;-82
2022/07/19 00:55:35;;;;;;;4.43;1.00;;;;;;;19.63;42.83;100522.41;4405262;32;33870;-82
2022/07/19 00:58:02;;;;;;;1.92;0.80;;;;;;;19.91;42.43;100520.34;4403570;32;33704;-81
2022/07/19 01:00:33;;;;;;;3.83;1.20;;;;;;;19.91;42.68;100525.59;4388162;32;34622;-83
2022/07/19 01:03:01;;;;;;;3.08;1.00;;;;;;;20.07;42.48;100517.12;4400550;32;33521;-82
2022/07/19 01:05:29;;;;;;;3.62;1.00;;;;;;;20.11;42.11;100512.78;4405902;32;32805;-82
2022/07/19 01:07:57;;;;;;;3.97;1.05;;;;;;;19.41;43.49;100519.38;4405713;32;33922;-82
2022/07/19 01:10:24;;;;;;;4.30;1.02;;;;;;;18.85;45.02;100521.63;4403878;32;34122;-81
2022/07/19 01:12:52;;;;;;;2.85;1.00;;;;;;;18.94;45.54;100516.59;4389370;32;33662;-83
2022/07/19 01:15:22;;;;;;;3.08;1.10;;;;;;;18.84;46.40;100514.63;4405403;32;33924;-84
2022/07/19 01:17:50;;;;;;;2.90;0.80;;;;;;;18.79;47.25;100517.09;4401552;32;33690;-84
2022/07/19 01:20:19;;;;;;;5.15;1.08;;;;;;;18.49;47.04;100517.28;4403599;32;34056;-82
2022/07/19 01:22:52;;;;;;;3.58;1.20;;;;;;;18.66;46.68;100515.94;4405414;32;34174;-83
2022/07/19 01:25:22;;;;;;;5.43;1.17;;;;;;;18.36;47.38;100510.84;4404973;32;34266;-83
2022/07/19 01:27:49;;;;;;;5.12;0.90;;;;;;;18.07;48.03;100515.37;4404883;32;33730;-84
2022/07/19 01:30:19;;;;;;;2.25;0.90;;;;;;;17.91;48.26;100516.72;4390519;32;34822;-84
2022/07/19 01:32:47;;;;;;;3.65;1.15;;;;;;;17.60;49.08;100512.34;4405531;32;33875;-84
2022/07/19 01:35:15;;;;;;;3.17;0.77;;;;;;;17.88;48.53;100506.13;4390559;32;33642;-82
2022/07/19 01:37:44;;;;;;;3.55;1.00;;;;;;;17.97;48.09;100508.13;4404131;32;32715;-84
2022/07/19 01:40:14;;;;;;;3.20;1.08;;;;;;;17.72;48.62;100515.28;4378756;32;33990;-83
2022/07/19 01:42:42;;;;;;;2.15;1.00;;;;;;;17.71;48.98;100510.88;4386623;32;32553;-84
2022/07/19 01:45:11;;;;;;;3.37;1.00;;;;;;;17.66;49.20;100502.03;4406264;32;32693;-85
2022/07/19 01:47:40;;;;;;;2.03;0.85;;;;;;;17.75;48.89;100504.91;4407311;32;33943;-81
2022/07/19 01:50:10;;;;;;;2.70;0.90;;;;;;;17.68;49.04;100502.97;4403048;32;34739;-83
2022/07/19 01:52:37;;;;;;;1.62;0.80;;;;;;;17.85;48.50;100496.47;4390754;32;34232;-83
2022/07/19 01:55:09;;;;;;;5.18;1.20;;;;;;;17.98;48.04;100499.41;4407227;32;33775;-81
2022/07/19 01:57:36;;;;;;;7.70;1.45;;;;;;;17.91;48.08;100495.75;4407736;32;32333;-82
2022/07/19 02:00:05;;;;;;;2.97;1.00;;;;;;;17.62;49.36;100497.56;4403947;32;34022;-82
2022/07/19 02:02:38;;;;;;;3.20;0.90;;;;;;;17.82;49.14;100506.81;4391259;32;34149;-83
2022/07/19 02:05:07;;;;;;;3.45;1.15;;;;;;;17.82;49.11;100506.81;4393776;32;34498;-83
2022/07/19 02:07:38;;;;;;;2.78;1.00;;;;;;;17.71;49.25;100503.03;4405708;32;33941;-83
2022/07/19 02:10:08;;;;;;;4.97;1.17;;;;;;;17.35;49.59;100509.03;4404296;32;34152;-83
2022/07/19 02:12:36;;;;;;;2.35;0.93;;;;;;;17.30;49.88;100500.16;4407164;32;34255;-84
2022/07/19 02:15:04;;;;;;;4.60;0.90;;;;;;;17.30;50.13;100506.25;4405000;32;34591;-81
2022/07/19 02:17:32;;;;;;;2.12;0.98;;;;;;;17.33;50.09;100508.09;4404233;32;33920;-84
2022/07/19 02:19:59;;;;;;;5.65;1.17;;;;;;;17.39;49.71;100510.88;4405990;32;34801;-82
2022/07/19 02:22:27;;;;;;;2.97;0.68;;;;;;;17.27;50.15;100513.16;4403909;32;33540;-81
2022/07/19 02:24:55;;;;;;;3.75;1.02;;;;;;;17.26;50.27;100519.22;4406990;32;33846;-82
2022/07/19 02:27:22;;;;;;;3.05;0.93;;;;;;;17.14;50.07;100508.41;4393462;32;33911;-81
2022/07/19 02:29:50;;;;;;;4.68;1.12;;;;;;;17.08;50.00;100510.00;4405900;32;33885;-83
2022/07/19 02:32:17;;;;;;;2.22;0.90;;;;;;;17.00;50.07;100516.75;4404256;32;33674;-81
2022/07/19 02:34:45;;;;;;;4.35;1.30;;;;;;;16.87;50.27;100509.34;4407670;32;34377;-81
2022/07/19 02:37:12;;;;;;;2.83;1.00;;;;;;;16.79;50.55;100516.06;4404295;32;33856;-81
2022/07/19 02:39:40;;;;;;;4.07;1.25;;;;;;;16.92;50.15;100514.72;4407294;32;34505;-82
2022/07/19 02:42:07;;;;;;;4.30;0.73;;;;;;;17.14;49.30;100518.87;4405832;32;34201;-82
2022/07/19 02:44:35;;;;;;;1.65;0.75;;;;;;;17.21;48.89;100520.81;4405103;32;33636;-81
2022/07/19 02:47:02;;;;;;;2.83;0.85;;;;;;;17.12;49.12;100520.56;4406294;32;34404;-81
2022/07/19 02:49:30;;;;;;;2.62;0.80;;;;;;;17.18;48.94;100523.38;4407174;32;34890;-81
2022/07/19 02:51:57;;;;;;;2.65;1.15;;;;;;;17.03;49.33;100516.81;4404576;32;34377;-82
2022/07/19 02:54:25;;;;;;;2.37;0.80;;;;;;;17.27;48.69;100513.16;4406102;32;34078;-81
2022/07/19 02:56:52;;;;;;;2.33;0.98;;;;;;;17.39;48.62;100521.38;4402050;32;84647;-80
2022/07/19 02:59:20;;;;;;;4.72;0.90;;;;;;;17.17;49.19;100518.97;4403689;32;34652;-80
2022/07/19 03:01:48;;;;;;;4.07;1.30;;;;;;;17.45;48.43;100518.91;4406280;32;33616;-80
2022/07/19 03:04:15;;;;;;;5.12;1.50;;;;;;;17.33;48.98;100518.56;4408103;32;33453;-84
2022/07/19 03:06:43;;;;;;;4.62;1.12;;;;;;;17.66;48.33;100523.00;4406860;32;34695;-82
2022/07/19 03:09:11;;;;;;;3.58;1.05;;;;;;;17.96;47.55;100519.44;4407873;32;32299;-81
2022/07/19 03:11:39;;;;;;;4.68;1.08;;;;;;;18.08;46.88;100525.03;4406658;32;33726;-82
2022/07/19 03:14:06;;;;;;;3.15;1.10;;;;;;;18.52;45.85;100516.47;4407682;32;34625;-82
2022/07/19 03:16:34;;;;;;;2.50;0.80;;;;;;;18.36;46.75;100520.47;4405881;32;34740;-83
2022/07/19 03:19:02;;;;;;;4.93;1.30;;;;;;;18.66;46.03;100515.06;4403388;32;34716;-83
2022/07/19 03:21:29;;;;;;;4.53;1.05;;;;;;;18.80;46.02;100515.41;4407188;32;33304;-81
2022/07/19 03:23:57;;;;;;;6.05;1.30;;;;;;;18.22;47.38;100526.25;4406541;32;34010;-83
2022/07/19 03:26:24;;;;;;;2.97;0.98;;;;;;;18.64;46.21;100520.28;4406567;32;33740;-84
2022/07/19 03:28:52;;;;;;;4.30;1.15;;;;;;;18.61;46.30;100528.06;4406023;32;34119;-84
2022/07/19 03:31:20;;;;;;;6.80;1.30;;;;;;;18.43;46.73;100538.13;4406634;32;34431;-84
2022/07/19 03:33:47;;;;;;;3.25;1.27;;;;;;;18.15;47.33;100531.28;4401909;32;34443;-82
2022/07/19 03:36:15;;;;;;;3.95;1.40;;;;;;;17.92;47.98;100533.31;4406988;32;34040;-84
2022/07/19 03:38:43;;;;;;;8.27;1.42;;;;;;;17.61;48.94;100542.91;4407502;32;34132;-83
2022/07/19 03:41:10;;;;;;;3.85;1.30;;;;;;;17.75;48.89;100546.84;4404796;32;33526;-82
2022/07/19 03:43:38;;;;;;;8.93;1.40;;;;;;;17.29;50.16;100541.16;4391333;32;33802;-84
2022/07/19 03:46:06;;;;;;;3.97;1.10;;;;;;;16.88;51.17;100543.44;4406869;32;32390;-84
2022/07/19 03:48:33;;;;;;;3.20;1.20;;;;;;;17.25;50.18;100538.41;4406630;32;34264;-83
2022/07/19 03:51:01;;;;;;;4.07;1.10;;;;;;;17.20;50.33;100545.25;4397536;32;32650;-84
2022/07/19 03:53:28;;;;;;;4.53;1.05;;;;;;;17.32;49.91;100556.06;4406139;32;34051;-83
2022/07/19 03:55:56;;;;;;;3.20;1.08;;;;;;;17.44;49.74;100553.81;4406969;32;34760;-83
2022/07/19 03:58:23;;;;;;;3.42;1.17;;;;;;;17.48;49.70;100553.06;4406276;32;34736;-82
2022/07/19 04:00:51;;;;;;;3.05;1.17;;;;;;;17.54;49.47;100556.69;4404408;32;33550;-84
2022/07/19 04:03:19;;;;;;;4.55;1.50;;;;;;;18.44;47.85;100555.63;4394192;32;31732;-83
2022/07/19 04:05:46;;;;;;;3.92;1.40;;;;;;;19.23;45.72;100561.00;4394082;32;33699;-81
2022/07/19 04:08:14;;;;;;;3.62;1.10;;;;;;;19.51;44.79;100564.19;4392119;32;34818;-83
2022/07/19 04:10:41;;;;;;;3.25;1.10;;;;;;;19.50;44.64;100565.06;4392480;32;34166;-83
2022/07/19 04:13:09;;;;;;;3.83;1.15;;;;;;;19.02;45.81;100567.53;4394822;32;34007;-84
2022/07/19 04:15:37;;;;;;;7.12;1.30;;;;;;;17.87;48.65;100562.91;4394206;32;33974;-81
2022/07/19 04:18:12;;;;;;;3.85;1.33;;;;;;;17.77;49.05;100566.09;4390828;32;34698;-84
2022/07/19 04:20:40;;;;;;;3.15;1.12;;;;;;;17.62;49.66;100566.56;4394844;32;33032;-82
2022/07/19 04:23:08;;;;;;;12.88;1.35;;;;;;;17.55;49.59;100561.97;4392464;32;34556;-82
2022/07/19 04:25:35;;;;;;;7.12;1.30;;;;;;;17.48;50.02;100566.16;4393085;32;33583;-83
2022/07/19 04:28:03;;;;;;;3.60;1.00;;;;;;;18.11;48.73;100571.41;4393619;32;34174;-82
2022/07/19 04:30:31;;;;;;;7.00;1.80;;;;;;;17.91;49.59;100569.13;4411082;32;33055;-83
2022/07/19 04:32:58;;;;;;;4.55;1.08;;;;;;;17.77;49.99;100578.28;4410737;32;34735;-83
2022/07/19 04:35:26;;;;;;;5.10;1.05;;;;;;;17.61;49.74;100569.13;4398250;32;34692;-82
2022/07/19 04:37:53;;;;;;;6.10;1.30;;;;;;;17.52;50.42;100579.31;4405140;32;34190;-82
2022/07/19 04:40:21;;;;;;;6.03;1.40;;;;;;;17.57;50.63;100577.75;4408035;32;32892;-82
2022/07/19 04:42:48;;;;;;;4.80;1.15;;;;;;;17.76;50.31;100573.91;4408135;32;33829;-82
2022/07/19 04:45:16;;;;;;;2.70;0.98;;;;;;;17.96;49.59;100577.97;4408282;32;33957;-82
2022/07/19 04:47:44;;;;;;;5.35;1.20;;;;;;;18.22;49.19;100575.19;4395104;32;34779;-85
2022/07/19 04:50:11;;;;;;;5.20;1.05;;;;;;;18.37;48.92;100570.34;4408037;32;33360;-83
2022/07/19 04:52:39;;;;;;;3.15;1.30;;;;;;;18.57;48.52;100573.44;4409775;32;33820;-84
2022/07/19 04:55:07;;;;;;;5.78;1.30;;;;;;;18.57;48.71;100570.81;4408360;32;34305;-84
2022/07/19 04:57:34;;;;;;;4.05;1.27;;;;;;;18.67;48.26;100569.31;4394912;32;33895;-84
2022/07/19 05:00:06;;;;;;;4.53;0.88;;;;;;;18.72;48.21;100566.81;4408895;32;33984;-87
2022/07/19 05:02:34;;;;;;;3.97;1.10;;;;;;;19.11;47.51;100560.75;4403226;32;34574;-83
2022/07/19 05:05:03;;;;;;;5.37;1.10;;;;;;;19.70;46.00;100560.22;4405856;32;34064;-85
2022/07/19 05:07:31;;;;;;;5.65;1.40;;;;;;;19.95;45.24;100570.41;4402621;32;34050;-85
2022/07/19 05:09:59;;;;;;;4.00;1.10;;;;;;;20.80;44.07;100559.59;4392956;32;33679;-83
2022/07/19 05:12:27;;;;;;;3.67;1.45;;;;;;;20.94;44.05;100567.69;4387841;32;34026;-86
2022/07/19 05:14:55;;;;;;;7.93;1.20;;;;;;;21.19;43.82;100563.66;4402619;32;33774;-85
2022/07/19 05:17:22;;;;;;;4.22;1.52;;;;;;;21.39;43.78;100565.66;4392677;32;33854;-82
2022/07/19 05:19:50;;;;;;;4.93;1.50;;;;;;;21.69;43.28;100565.19;4402657;32;33766;-85
2022/07/19 05:22:17;;;;;;;6.37;1.90;;;;;;;21.71;43.04;100563.47;4406187;32;33918;-82
2022/07/19 05:24:45;;;;;;;4.15;1.50;;;;;;;22.05;42.24;100563.81;4406360;32;34906;-81
2022/07/19 05:27:13;;;;;;;5.53;1.40;;;;;;;21.03;44.20;100566.94;4402324;32;33884;-84
2022/07/19 05:29:40;;;;;;;4.07;1.30;;;;;;;20.85;43.97;100556.13;4406015;32;33499;-82
2022/07/19 05:32:08;;;;;;;4.03;1.08;;;;;;;20.50;45.18;100565.22;4403306;32;34221;-84
2022/07/19 05:34:35;;;;;;;4.37;1.30;;;;;;;20.58;44.39;100558.31;4389606;32;34807;-85
2022/07/19 05:37:03;;;;;;;5.20;1.23;;;;;;;20.53;44.52;100560.00;4403963;32;34667;-86
2022/07/19 05:39:31;;;;;;;3.40;1.25;;;;;;;20.97;43.09;100561.56;4403795;32;33975;-84
2022/07/19 05:41:58;;;;;;;4.55;1.33;;;;;;;21.09;42.48;100566.13;4403587;32;34636;-84
2022/07/19 05:44:25;;;;;;;5.10;1.10;;;;;;;21.84;40.97;100564.47;4403753;32;33875;-84
2022/07/19 05:46:53;;;;;;;3.67;1.27;;;;;;;22.56;40.75;100556.38;4404958;32;32975;-85
2022/07/19 05:49:21;;;;;;;3.15;1.00;;;;;;;22.88;39.92;100559.25;4392288;32;33201;-84
2022/07/19 05:51:48;;;;;;;5.43;1.40;;;;;;;23.12;39.47;100558.56;4406068;32;33387;-85
2022/07/19 05:54:17;;;;;;;6.50;1.30;;;;;;;23.27;39.66;100560.38;4387193;32;34831;-85
2022/07/19 05:56:44;;;;;;;4.07;1.00;;;;;;;23.42;38.57;100562.22;4403923;32;34761;-83
2022/07/19 05:59:12;;;;;;;3.78;1.02;;;;;;;23.54;36.50;100548.16;4394039;32;31363;-83
2022/07/19 06:01:40;;;;;;;6.32;1.17;;;;;;;23.55;36.86;100552.59;4401853;32;34069;-84
2022/07/19 06:04:08;;;;;;;4.43;1.17;;;;;;;23.90;36.98;100559.78;4402749;32;34627;-85
2022/07/19 06:06:35;;;;;;;4.37;1.20;;;;;;;24.18;36.18;100544.81;4404001;32;33833;-85
2022/07/19 06:09:04;;;;;;;3.60;0.75;;;;;;;24.09;36.83;100550.13;4401490;32;34398;-84
2022/07/19 06:11:32;;;;;;;4.55;1.30;;;;;;;23.92;35.95;100563.31;4400947;32;32903;-83
2022/07/19 06:14:00;;;;;;;3.42;1.00;;;;;;;24.28;36.26;100556.28;4403389;32;34122;-82
2022/07/19 06:16:28;;;;;;;2.87;1.10;;;;;;;24.20;35.57;100552.75;4401177;32;34105;-81
2022/07/19 06:18:56;;;;;;;8.73;1.17;;;;;;;23.98;36.29;100558.03;4389078;32;32529;-82
2022/07/19 06:21:23;;;;;;;8.07;1.20;;;;;;;23.81;36.18;100565.03;4401182;32;33664;-80
2022/07/19 06:23:51;;;;;;;3.72;1.20;;;;;;;24.29;36.12;100552.78;4403198;32;33488;-82
2022/07/19 06:26:19;;;;;;;3.55;1.10;;;;;;;24.79;35.66;100549.25;4401813;32;34304;-81
2022/07/19 06:28:46;;;;;;;5.35;1.10;;;;;;;25.22;34.46;100549.16;4402219;32;33494;-80
2022/07/19 06:31:16;;;;;;;2.33;0.90;;;;;;;25.43;34.60;100556.16;4400666;32;33767;-81
2022/07/19 06:33:46;;;;;;;4.45;1.15;;;;;;;25.28;34.24;100557.12;4405815;32;32764;-81
2022/07/19 06:36:14;;;;;;;6.35;1.42;;;;;;;25.58;33.69;100557.88;4392586;32;32332;-81
2022/07/19 06:38:42;;;;;;;3.83;1.08;;;;;;;25.50;33.90;100554.38;4396997;32;33435;-80
2022/07/19 06:41:11;;;;;;;2.20;0.95;;;;;;;25.99;33.07;100556.78;4392681;32;33963;-82
2022/07/19 06:43:39;;;;;;;5.65;1.00;;;;;;;26.14;32.27;100552.28;4397321;32;32521;-79
2022/07/19 06:46:07;;;;;;;7.40;1.00;;;;;;;26.06;31.39;100558.53;4401672;32;35226;-82
2022/07/19 06:48:35;;;;;;;5.85;1.23;;;;;;;26.03;31.36;100555.87;4403826;32;34459;-86
2022/07/19 06:51:05;;;;;;;7.47;1.40;;;;;;;26.23;31.95;100550.44;4405551;32;32609;-80
2022/07/19 06:53:33;;;;;;;6.40;1.23;;;;;;;26.41;30.75;100551.19;4399962;32;33571;-79
2022/07/19 06:56:01;;;;;;;5.93;1.15;;;;;;;26.37;30.29;100552.97;4405046;32;34134;-80
2022/07/19 06:58:29;;;;;;;7.55;1.37;;;;;;;26.47;30.00;100552.00;4388947;32;34453;-79
2022/07/19 07:00:57;;;;;;;8.02;1.30;;;;;;;26.70;29.76;100553.59;4405787;32;34502;-80
2022/07/19 07:03:25;;;;;;;4.25;1.15;;;;;;;26.96;29.18;100549.81;4390750;32;34059;-80
2022/07/19 07:05:53;;;;;;;7.95;1.17;;;;;;;26.88;29.70;100548.09;4390341;32;33844;-80
2022/07/19 07:08:20;;;;;;;5.00;1.20;;;;;;;27.38;28.67;100551.12;4407732;32;34306;-79
2022/07/19 07:10:48;;;;;;;4.53;1.00;;;;;;;27.61;27.69;100555.28;4407202;32;33980;-80
2022/07/19 07:13:15;;;;;;;5.68;1.42;;;;;;;27.34;26.94;100540.53;4407913;32;34837;-84
2022/07/19 07:15:43;;;;;;;8.43;1.05;;;;;;;28.30;26.69;100524.06;4391147;32;34044;-81
2022/07/19 07:18:11;;;;;;;3.55;1.00;;;;;;;29.17;25.49;100535.00;4401587;32;33702;-82
2022/07/19 07:20:39;;;;;;;3.75;0.88;;;;;;;30.16;24.09;100525.69;4407364;32;34701;-82
2022/07/19 07:23:06;;;;;;;7.20;1.25;;;;;;;31.43;22.60;100525.88;4405061;32;33620;-81
2022/07/19 07:25:34;;;;;;;5.53;1.00;;;;;;;31.50;21.77;100525.66;4406585;32;34561;-81
2022/07/19 07:28:02;;;;;;;6.22;1.15;;;;;;;32.93;21.20;100528.16;4402450;32;33694;-80
2022/07/19 07:30:30;;;;;;;3.92;1.00;;;;;;;34.44;19.21;100515.09;4387330;32;32328;-81
2022/07/19 07:32:57;;;;;;;1.92;0.70;;;;;;;35.64;18.18;100525.00;4398206;32;33557;-84
2022/07/19 07:35:25;;;;;;;5.90;0.90;;;;;;;36.78;16.42;100517.50;4387152;32;34847;-80
2022/07/19 07:37:53;;;;;;;2.95;0.82;;;;;;;37.53;15.51;100506.25;4405372;32;33213;-83
2022/07/19 07:40:21;;;;;;;8.10;1.05;;;;;;;38.23;14.98;100500.47;4405592;32;33939;-80
2022/07/19 07:42:49;;;;;;;4.68;0.75;;;;;;;39.22;13.72;100501.63;4390037;32;33205;-81
2022/07/19 07:45:16;;;;;;;5.80;0.80;;;;;;;40.17;13.67;100499.09;4392136;32;34811;-82
2022/07/19 07:47:45;;;;;;;5.93;1.08;;;;;;;40.42;12.36;100496.47;4401716;32;34156;-82
2022/07/19 07:50:12;;;;;;;2.97;1.00;;;;;;;40.92;12.51;100502.06;4404743;32;34854;-81
2022/07/19 07:52:40;;;;;;;4.07;1.10;;;;;;;41.45;12.09;100499.16;4391681;32;33972;-79
2022/07/19 07:55:08;;;;;;;6.53;0.88;;;;;;;41.71;11.88;100494.53;4407533;32;33906;-80
2022/07/19 07:57:55;;;;;;;7.55;1.23;;;;;;;41.64;11.52;100499.56;4392888;32;33680;-80
2022/07/19 08:00:23;;;;;;;4.43;0.80;;;;;;;42.56;11.11;100490.84;4402641;32;33618;-80
2022/07/19 08:02:51;;;;;;;4.22;0.82;;;;;;;42.72;10.75;100501.37;4402121;32;33750;-81
2022/07/19 08:05:22;;;;;;;1.95;0.70;;;;;;;43.09;10.22;100499.31;4383739;32;34067;-80
2022/07/19 08:07:50;;;;;;;3.83;0.62;;;;;;;42.67;10.16;100493.56;4399547;32;34604;-80
2022/07/19 08:10:22;;;;;;;0.90;0.40;;;;;;;42.76;10.15;100492.81;4389256;32;33764;-80
2022/07/19 08:12:49;;;;;;;2.65;0.70;;;;;;;43.09;10.08;100491.13;4402308;32;34703;-81
2022/07/19 08:15:17;;;;;;;16.70;1.10;;;;;;;43.51;9.82;100488.63;4403336;32;34109;-81
2022/07/19 08:17:45;;;;;;;3.55;0.80;;;;;;;43.36;9.80;100492.62;4395266;32;33224;-81
2022/07/19 08:20:13;;;;;;;3.05;0.88;;;;;;;42.74;10.66;100489.34;4388735;32;33926;-80
2022/07/19 08:22:40;;;;;;;3.05;0.70;;;;;;;42.84;10.36;100483.19;4404782;32;34608;-80
2022/07/19 08:25:08;;;;;;;2.35;0.73;;;;;;;42.65;9.88;100479.19;4400391;32;33112;-78
2022/07/19 08:27:36;;;;;;;2.40;0.77;;;;;;;37.97;13.62;100489.34;4399785;32;33637;-79
2022/07/19 08:30:04;;;;;;;1.45;0.60;;;;;;;35.79;14.95;100491.94;4396621;32;32395;-80
2022/07/19 08:32:37;;;;;;;2.75;0.60;;;;;;;39.51;12.46;100486.22;4405490;32;34049;-79
2022/07/19 08:35:05;;;;;;;1.67;0.50;;;;;;;37.74;13.39;100483.44;4403253;32;33907;-81
2022/07/19 08:37:33;;;;;;;2.35;0.55;;;;;;;37.02;13.94;100489.28;4402417;32;33635;-84
2022/07/19 08:40:02;;;;;;;2.25;0.70;;;;;;;35.70;15.41;100484.31;4405728;32;34261;-80
2022/07/19 08:42:30;;;;;;;4.00;0.70;;;;;;;34.52;16.68;100484.28;4402368;32;34173;-82
2022/07/19 08:45:09;;;;;;;3.03;0.80;;;;;;;34.36;16.73;100473.34;4396670;32;33555;-80
2022/07/19 08:47:38;;;;;;;2.00;0.60;;;;;;;34.44;17.07;100481.94;4397630;32;33236;-80
2022/07/19 08:50:08;;;;;;;2.90;0.80;;;;;;;34.77;16.92;100481.41;4403313;32;32588;-80
2022/07/19 08:52:36;;;;;;;3.37;0.90;;;;;;;34.67;16.90;100478.25;4389027;32;33437;-78
2022/07/19 08:55:04;;;;;;;4.65;0.80;;;;;;;34.02;17.51;100469.38;4379970;32;34248;-79
2022/07/19 09:00:19;;;;;;;3.53;0.90;;;;;;;34.60;17.15;100472.25;4403200;32;34680;-78
2022/07/19 09:03:02;;;;;;;6.65;0.90;;;;;;;34.15;17.06;100469.72;4402114;32;33706;-79
2022/07/19 09:05:30;;;;;;;5.00;1.02;;;;;;;33.81;17.87;100469.31;4405653;32;34776;-78
2022/07/19 09:08:12;;;;;;;3.08;0.62;;;;;;;32.99;18.67;100476.94;4404453;32;33474;-79
2022/07/19 09:10:43;;;;;;;2.70;0.77;;;;;;;33.96;17.69;100475.88;4381115;32;34310;-81
2022/07/19 09:13:15;;;;;;;3.58;0.90;;;;;;;35.58;16.38;100466.00;4377533;32;32386;-79
2022/07/19 09:15:45;;;;;;;3.47;0.70;;;;;;;34.54;16.92;100472.53;4401851;32;33849;-81
2022/07/19 09:18:20;;;;;;;2.35;0.77;;;;;;;35.08;16.61;100467.44;4399007;32;33675;-81
2022/07/19 09:20:50;;;;;;;1.35;0.80;;;;;;;35.74;16.33;100458.06;4402326;32;34665;-80
2022/07/19 09:23:19;;;;;;;3.62;0.95;;;;;;;36.27;16.05;100461.72;4400590;32;34872;-81
2022/07/19 09:25:54;;;;;;;3.12;0.80;;;;;;;36.13;15.71;100455.19;4387859;32;33804;-82
2022/07/19 09:28:24;;;;;;;4.43;0.80;;;;;;;35.79;16.45;100448.81;4400918;32;34287;-81
2022/07/19 09:30:56;;;;;;;4.07;0.85;;;;;;;35.93;16.33;100453.50;4402784;32;34043;-81
2022/07/19 09:33:26;;;;;;;4.07;0.90;;;;;;;36.02;16.33;100457.53;4403859;32;33681;-81
2022/07/19 09:35:58;;;;;;;6.10;0.80;;;;;;;36.24;16.00;100459.16;4405761;32;33905;-80
2022/07/19 09:38:27;;;;;;;5.57;0.90;;;;;;;36.05;16.51;100454.72;4400543;32;33275;-80
2022/07/19 09:41:16;;;;;;;1.92;0.73;;;;;;;35.56;17.22;100468.78;4401796;32;33578;-80
2022/07/19 09:43:56;;;;;;;3.55;0.73;;;;;;;34.59;17.24;100462.44;4405603;32;34882;-81
2022/07/19 09:46:37;;;;;;;3.45;0.80;;;;;;;34.57;17.63;100467.00;4403547;32;34707;-78
2022/07/19 09:49:16;;;;;;;2.95;0.60;;;;;;;34.27;17.52;100459.34;4403264;32;33646;-79
2022/07/19 09:51:46;;;;;;;1.50;0.60;;;;;;;34.12;17.59;100454.59;4391747;32;32613;-80
2022/07/19 09:54:16;;;;;;;2.75;0.62;;;;;;;35.30;17.14;100448.47;4403567;32;34430;-80
2022/07/19 09:56:44;;;;;;;2.05;0.70;;;;;;;35.49;16.98;100447.59;4398433;32;33985;-79
2022/07/19 09:59:12;;;;;;;2.30;0.70;;;;;;;35.94;16.48;100439.06;4400682;32;33391;-79
2022/07/19 10:01:40;;;;;;;7.72;1.10;;;;;;;35.53;16.86;100446.50;4402984;32;33973;-82
2022/07/19 10:04:11;;;;;;;5.15;1.23;;;;;;;34.69;17.18;100443.22;4404371;32;33977;-81
2022/07/19 10:06:40;;;;;;;4.03;1.55;;;;;;;34.81;17.34;100438.16;4407266;32;33926;-78
2022/07/19 10:09:09;;;;;;;2.12;0.90;;;;;;;34.61;17.77;100440.84;4403571;32;33182;-76
2022/07/19 10:11:38;;;;;;;3.30;0.80;;;;;;;33.41;18.42;100448.53;4407944;32;33565;-78
2022/07/19 10:14:06;;;;;;;3.83;0.80;;;;;;;33.25;18.30;100446.44;4406181;32;33940;-78
2022/07/19 10:16:57;;;;;;;2.97;0.82;;;;;;;34.85;17.64;100450.53;4406645;32;33825;-77
2022/07/19 10:19:38;;;;;;;4.35;0.90;;;;;;;34.79;17.45;100445.44;4402453;32;33534;-78
2022/07/19 10:22:10;;;;;;;3.53;0.90;;;;;;;36.14;15.97;100429.97;4395404;32;34653;-77
2022/07/19 10:24:46;;;;;;;2.60;0.73;;;;;;;36.55;16.03;100432.34;4406412;32;34640;-79
2022/07/19 10:27:35;;;;;;;2.12;0.85;;;;;;;36.81;15.50;100443.56;4407332;32;33989;-78
2022/07/19 10:30:12;;;;;;;1.92;0.65;;;;;;;36.60;15.85;100434.78;4396513;32;33034;-77
2022/07/19 10:32:45;;;;;;;3.53;0.85;;;;;;;37.15;15.25;100436.38;4407907;32;34525;-79
2022/07/19 10:35:15;;;;;;;3.78;1.12;;;;;;;37.29;15.51;100427.47;4404320;32;33849;-78
2022/07/19 10:37:45;;;;;;;3.40;0.70;;;;;;;37.13;15.32;100427.47;4406789;32;34786;-78
2022/07/19 10:40:13;;;;;;;3.40;0.62;;;;;;;36.96;15.75;100431.94;4405591;32;33268;-79
2022/07/19 10:43:07;;;;;;;3.15;1.05;;;;;;;37.12;15.22;100420.28;4405051;32;33843;-81
2022/07/19 10:45:36;;;;;;;3.03;0.80;;;;;;;36.18;16.04;100420.81;4407436;32;34702;-78
2022/07/19 10:48:05;;;;;;;3.67;1.00;;;;;;;36.36;16.05;100416.25;4408109;32;33771;-80
2022/07/19 10:50:56;;;;;;;2.90;0.98;;;;;;;36.69;16.02;100414.56;4406713;32;34177;-78
2022/07/19 10:53:42;;;;;;;1.90;0.75;;;;;;;36.85;15.71;100412.75;4406743;32;35139;-77
2022/07/19 10:56:17;;;;;;;3.65;0.82;;;;;;;37.22;15.55;100413.44;4395010;32;32295;-79
2022/07/19 10:59:09;;;;;;;3.35;0.80;;;;;;;37.43;15.19;100413.16;4406953;32;34409;-86
2022/07/19 11:01:39;;;;;;;3.75;0.90;;;;;;;38.26;14.54;100411.88;4404033;32;31962;-79
2022/07/19 11:04:28;;;;;;;4.00;0.70;;;;;;;38.42;14.38;100405.53;4407477;32;32961;-78
2022/07/19 11:07:20;;;;;;;2.72;0.90;;;;;;;37.87;15.69;100393.50;4399385;32;33265;-77
2022/07/19 11:09:51;;;;;;;3.10;0.85;;;;;;;38.23;14.92;100393.16;4404466;32;34862;-79
2022/07/19 11:12:36;;;;;;;3.85;1.12;;;;;;;38.63;14.35;100395.22;4402983;32;32891;-80
2022/07/19 11:15:09;;;;;;;4.43;1.02;;;;;;;38.98;13.95;100392.09;4404954;32;33888;-79
2022/07/19 11:17:54;;;;;;;5.85;1.00;;;;;;;38.97;13.85;100393.09;4401690;32;34119;-79
2022/07/19 11:20:30;;;;;;;4.20;0.82;;;;;;;38.18;14.62;100387.13;4397668;32;34131;-80
2022/07/19 11:22:59;;;;;;;4.72;1.00;;;;;;;37.67;15.00;100382.06;4395011;32;33272;-79
2022/07/19 11:25:35;;;;;;;6.65;0.93;;;;;;;36.99;15.40;100377.78;4401160;32;33901;-80
2022/07/19 11:28:03;;;;;;;1.98;0.88;;;;;;;37.36;15.13;100375.69;4389462;32;33419;-77
2022/07/19 11:30:33;;;;;;;2.42;0.90;;;;;;;38.24;15.17;100375.06;4404966;32;34143;-78
2022/07/19 11:33:05;;;;;;;2.35;0.73;;;;;;;37.65;14.70;100370.47;4397082;32;33419;-79
2022/07/19 11:35:39;;;;;;;4.47;1.10;;;;;;;35.50;16.58;100363.13;4392672;32;33760;-78
2022/07/19 11:38:07;;;;;;;5.43;1.17;;;;;;;36.41;15.78;100364.75;4391494;32;34430;-79